createdAt,value
2017-11-21T20:59:37.414Z,82.70
2017-11-21T21:02:05.472Z,82.30
2017-11-21T21:04:33.530Z,81.70
2017-11-21T21:07:01.589Z,81.70
2017-11-21T21:09:29.670Z,80.70
2017-11-21T21:11:57.718Z,80.30
2017-11-21T21:14:26.172Z,80.40
2017-11-21T21:16:54.998Z,81.30
2017-11-21T21:19:23.055Z,81.40
2017-11-21T21:21:51.883Z,80.50
2017-11-21T21:24:19.943Z,81.30
2017-11-21T21:26:48.043Z,81.00
2017-11-21T21:29:16.090Z,80.40
2017-11-21T21:31:44.170Z,81.00
2017-11-21T21:34:12.227Z,81.80
2017-11-21T21:36:40.286Z,81.30
2017-11-21T21:39:08.351Z,81.20
2017-11-21T21:41:36.402Z,81.40
2017-11-21T21:44:05.241Z,82.40
2017-11-21T21:46:33.293Z,81.80
2017-11-21T21:49:01.355Z,81.80
2017-11-21T21:51:29.407Z,81.80
2017-11-21T21:53:58.238Z,83.50
2017-11-21T21:56:26.319Z,82.60
2017-11-21T21:58:54.366Z,82.70
2017-11-21T22:01:22.427Z,82.90
2017-11-21T22:03:50.515Z,83.40
2017-11-21T22:06:18.561Z,82.80
2017-11-21T22:08:46.649Z,81.90
2017-11-21T22:11:15.454Z,82.80
2017-11-21T22:13:43.523Z,81.80
2017-11-21T22:16:11.581Z,81.70
2017-11-21T22:18:39.651Z,82.40
2017-11-21T22:21:07.714Z,82.80
2017-11-21T22:23:35.791Z,82.70
2017-11-21T22:26:03.848Z,82.60
2017-11-21T22:28:32.670Z,82.40
2017-11-21T22:31:00.755Z,82.30
2017-11-21T22:33:28.813Z,82.30
2017-11-21T22:35:56.867Z,81.70
2017-11-21T22:38:24.938Z,80.20
2017-11-21T22:40:53.010Z,80.20
2017-11-21T22:43:21.080Z,77.70
2017-11-21T22:45:49.157Z,76.50
2017-11-21T22:48:17.986Z,77.80
2017-11-21T22:50:46.046Z,77.70
2017-11-21T22:53:14.094Z,77.50
2017-11-21T22:55:42.158Z,77.10
2017-11-21T22:58:10.210Z,77.50
2017-11-21T23:00:39.157Z,78.80
2017-11-21T23:03:07.948Z,79.00
2017-11-21T23:05:36.038Z,79.00
2017-11-21T23:08:04.098Z,79.80
2017-11-21T23:10:32.156Z,80.30
2017-11-21T23:13:00.239Z,81.00
2017-11-21T23:15:28.296Z,81.70
2017-11-21T23:17:56.352Z,82.40
2017-11-21T23:20:24.427Z,81.50
2017-11-21T23:22:52.482Z,84.60
2017-11-21T23:25:20.567Z,84.20
2017-11-21T23:27:48.627Z,84.10
2017-11-21T23:30:16.685Z,83.70
2017-11-21T23:32:45.515Z,79.90
2017-11-21T23:35:13.574Z,79.90
2017-11-21T23:37:41.654Z,80.10
2017-11-21T23:40:09.713Z,81.10
2017-11-21T23:42:37.754Z,79.60
2017-11-21T23:45:06.595Z,80.70
2017-11-21T23:47:34.651Z,80.00
2017-11-21T23:50:02.726Z,79.30
2017-11-21T23:52:30.783Z,79.50
2017-11-21T23:54:58.834Z,80.40
2017-11-21T23:57:27.679Z,81.40
2017-11-21T23:59:55.730Z,81.40
